sensor_id;sensor_type;location;lat;lon;timestamp;pressure;altitude;pressure_sealevel;temperature;humidity
77003;BME280;65939;50.060;14.288;2023-09-12T00:01:11;96949.91;;;21.13;82.33
77003;BME280;65939;50.060;14.288;2023-09-12T00:03:12;96951.16;;;21.11;82.08
77003;BME280;65939;50.060;14.288;2023-09-12T00:05:13;96943.19;;;21.11;82.03
77003;BME280;65939;50.060;14.288;2023-09-12T00:07:13;96939.75;;;21.10;82.11
77003;BME280;65939;50.060;14.288;2023-09-12T00:09:14;96946.91;;;21.10;82.53
77003;BME280;65939;50.060;14.288;2023-09-12T00:11:15;96947.13;;;21.08;82.20
77003;BME280;65939;50.060;14.288;2023-09-12T00:13:15;96946.31;;;21.08;82.22
77003;BME280;65939;50.060;14.288;2023-09-12T00:15:16;96944.69;;;21.07;82.29
77003;BME280;65939;50.060;14.288;2023-09-12T00:17:17;96950.00;;;21.07;82.43
77003;BME280;65939;50.060;14.288;2023-09-12T00:19:17;96943.06;;;21.05;82.41
77003;BME280;65939;50.060;14.288;2023-09-12T00:21:18;96955.31;;;21.07;82.71
77003;BME280;65939;50.060;14.288;2023-09-12T00:23:20;96942.06;;;21.07;82.67
77003;BME280;65939;50.060;14.288;2023-09-12T00:25:22;96944.91;;;21.05;82.53
77003;BME280;65939;50.060;14.288;2023-09-12T00:27:22;96945.38;;;21.02;82.84
77003;BME280;65939;50.060;14.288;2023-09-12T00:29:23;96949.06;;;21.01;82.94
77003;BME280;65939;50.060;14.288;2023-09-12T00:31:23;96949.31;;;20.99;83.20
77003;BME280;65939;50.060;14.288;2023-09-12T00:33:24;96947.69;;;20.98;83.02
77003;BME280;65939;50.060;14.288;2023-09-12T00:35:25;96935.44;;;20.97;82.89
77003;BME280;65939;50.060;14.288;2023-09-12T00:37:26;96941.81;;;20.96;82.92
77003;BME280;65939;50.060;14.288;2023-09-12T00:39:26;96941.81;;;20.96;83.16
77003;BME280;65939;50.060;14.288;2023-09-12T00:41:27;96942.03;;;20.95;83.28
77003;BME280;65939;50.060;14.288;2023-09-12T00:43:28;96946.53;;;20.94;82.85
77003;BME280;65939;50.060;14.288;2023-09-12T00:45:28;96939.59;;;20.93;82.37
77003;BME280;65939;50.060;14.288;2023-09-12T00:47:30;96941.69;;;20.91;82.83
77003;BME280;65939;50.060;14.288;2023-09-12T00:49:33;96945.97;;;20.92;82.36
77003;BME280;65939;50.060;14.288;2023-09-12T00:51:35;96940.66;;;20.92;82.43
77003;BME280;65939;50.060;14.288;2023-09-12T00:53:36;96946.53;;;20.94;82.19
77003;BME280;65939;50.060;14.288;2023-09-12T00:55:45;96949.19;;;20.94;82.06
77003;BME280;65939;50.060;14.288;2023-09-12T00:57:47;96951.63;;;20.96;82.11
77003;BME280;65939;50.060;14.288;2023-09-12T00:59:51;96952.44;;;20.96;81.76
77003;BME280;65939;50.060;14.288;2023-09-12T01:01:52;96948.72;;;20.97;81.65
77003;BME280;65939;50.060;14.288;2023-09-12T01:03:55;96951.38;;;20.97;81.38
77003;BME280;65939;50.060;14.288;2023-09-12T01:05:57;96952.19;;;20.98;81.33
77003;BME280;65939;50.060;14.288;2023-09-12T01:08:00;96947.69;;;20.98;81.25
77003;BME280;65939;50.060;14.288;2023-09-12T01:10:01;96945.63;;;21.00;81.00
77003;BME280;65939;50.060;14.288;2023-09-12T01:12:04;96948.84;;;21.02;81.17
77003;BME280;65939;50.060;14.288;2023-09-12T01:14:04;96947.81;;;21.03;80.82
77003;BME280;65939;50.060;14.288;2023-09-12T01:16:05;96946.31;;;21.08;80.74
77003;BME280;65939;50.060;14.288;2023-09-12T01:18:06;96950.91;;;21.12;80.32
77003;BME280;65939;50.060;14.288;2023-09-12T01:20:11;96950.47;;;21.15;80.42
77003;BME280;65939;50.060;14.288;2023-09-12T01:29:19;96938.22;;;21.26;79.75
77003;BME280;65939;50.060;14.288;2023-09-12T01:31:23;96942.47;;;21.27;79.48
77003;BME280;65939;50.060;14.288;2023-09-12T01:33:25;96943.06;;;21.29;79.55
77003;BME280;65939;50.060;14.288;2023-09-12T01:35:26;96946.06;;;21.33;79.21
77003;BME280;65939;50.060;14.288;2023-09-12T01:37:27;96944.22;;;21.33;79.48
77003;BME280;65939;50.060;14.288;2023-09-12T01:39:28;96946.88;;;21.33;79.35
77003;BME280;65939;50.060;14.288;2023-09-12T01:41:32;96945.06;;;21.34;79.15
77003;BME280;65939;50.060;14.288;2023-09-12T01:43:36;96943.41;;;21.33;79.49
77003;BME280;65939;50.060;14.288;2023-09-12T01:45:37;96947.91;;;21.32;79.38
77003;BME280;65939;50.060;14.288;2023-09-12T01:47:39;96945.25;;;21.32;79.33
77003;BME280;65939;50.060;14.288;2023-09-12T01:49:45;96948.72;;;21.33;79.57
77003;BME280;65939;50.060;14.288;2023-09-12T01:51:47;96953.22;;;21.32;79.63
77003;BME280;65939;50.060;14.288;2023-09-12T01:53:49;96945.47;;;21.31;79.39
77003;BME280;65939;50.060;14.288;2023-09-12T01:55:51;96948.72;;;21.33;79.08
77003;BME280;65939;50.060;14.288;2023-09-12T01:57:52;96947.91;;;21.32;79.06
77003;BME280;65939;50.060;14.288;2023-09-12T01:59:53;96946.31;;;21.31;79.09
77003;BME280;65939;50.060;14.288;2023-09-12T02:01:54;96951.84;;;21.29;79.29
77003;BME280;65939;50.060;14.288;2023-09-12T02:03:54;96956.09;;;21.31;79.09
77003;BME280;65939;50.060;14.288;2023-09-12T02:05:55;96959.81;;;21.29;78.85
77003;BME280;65939;50.060;14.288;2023-09-12T02:07:56;96957.16;;;21.29;79.31
77003;BME280;65939;50.060;14.288;2023-09-12T02:09:57;96960.06;;;21.28;79.30
77003;BME280;65939;50.060;14.288;2023-09-12T02:11:58;96961.91;;;21.27;79.10
77003;BME280;65939;50.060;14.288;2023-09-12T02:13:58;96963.72;;;21.27;79.37
77003;BME280;65939;50.060;14.288;2023-09-12T02:16:02;96967.44;;;21.26;79.04
77003;BME280;65939;50.060;14.288;2023-09-12T02:18:05;96959.13;;;21.22;79.25
77003;BME280;65939;50.060;14.288;2023-09-12T02:20:09;96964.09;;;21.19;79.10
77003;BME280;65939;50.060;14.288;2023-09-12T02:22:10;96961.31;;;21.14;79.71
77003;BME280;65939;50.060;14.288;2023-09-12T02:24:11;96968.34;;;21.08;79.38
77003;BME280;65939;50.060;14.288;2023-09-12T02:26:12;96964.78;;;21.02;79.96
77003;BME280;65939;50.060;14.288;2023-09-12T02:28:12;96963.03;;;20.96;80.68
77003;BME280;65939;50.060;14.288;2023-09-12T02:30:13;96958.88;;;20.89;80.59
77003;BME280;65939;50.060;14.288;2023-09-12T02:32:14;96964.06;;;20.84;80.55
77003;BME280;65939;50.060;14.288;2023-09-12T02:34:14;96961.50;;;20.77;80.92
77003;BME280;65939;50.060;14.288;2023-09-12T02:36:15;96958.75;;;20.72;81.09
77003;BME280;65939;50.060;14.288;2023-09-12T02:38:18;96962.09;;;20.67;81.23
77003;BME280;65939;50.060;14.288;2023-09-12T02:40:18;96961.50;;;20.65;81.34
77003;BME280;65939;50.060;14.288;2023-09-12T02:42:19;96968.06;;;20.63;81.24
77003;BME280;65939;50.060;14.288;2023-09-12T02:44:20;96956.88;;;20.61;81.88
77003;BME280;65939;50.060;14.288;2023-09-12T02:46:21;96958.94;;;20.59;82.09
77003;BME280;65939;50.060;14.288;2023-09-12T02:48:21;96968.38;;;20.54;81.92
77003;BME280;65939;50.060;14.288;2023-09-12T02:50:22;96961.69;;;20.52;81.98
77003;BME280;65939;50.060;14.288;2023-09-12T02:52:22;96967.22;;;20.50;82.26
77003;BME280;65939;50.060;14.288;2023-09-12T02:54:23;96962.94;;;20.49;82.49
77003;BME280;65939;50.060;14.288;2023-09-12T02:56:24;96963.94;;;20.48;82.65
77003;BME280;65939;50.060;14.288;2023-09-12T02:58:24;96957.03;;;20.47;82.48
77003;BME280;65939;50.060;14.288;2023-09-12T03:00:25;96962.34;;;20.47;83.08
77003;BME280;65939;50.060;14.288;2023-09-12T03:02:26;96961.53;;;20.47;82.83
77003;BME280;65939;50.060;14.288;2023-09-12T03:04:30;96956.22;;;20.47;82.86
77003;BME280;65939;50.060;14.288;2023-09-12T03:06:30;96958.88;;;20.47;82.78
77003;BME280;65939;50.060;14.288;2023-09-12T03:08:31;96957.28;;;20.46;82.63
77003;BME280;65939;50.060;14.288;2023-09-12T03:10:32;96959.94;;;20.46;82.94
77003;BME280;65939;50.060;14.288;2023-09-12T03:12:32;96962.78;;;20.44;82.89
77003;BME280;65939;50.060;14.288;2023-09-12T03:14:33;96965.44;;;20.44;82.69
77003;BME280;65939;50.060;14.288;2023-09-12T03:16:34;96963.22;;;20.41;83.34
77003;BME280;65939;50.060;14.288;2023-09-12T03:18:34;96961.88;;;20.39;83.03
77003;BME280;65939;50.060;14.288;2023-09-12T03:20:38;96959.41;;;20.37;83.23
77003;BME280;65939;50.060;14.288;2023-09-12T03:22:38;96949.84;;;20.36;83.64
77003;BME280;65939;50.060;14.288;2023-09-12T03:24:39;96956.22;;;20.35;83.55
77003;BME280;65939;50.060;14.288;2023-09-12T03:26:40;96959.66;;;20.36;83.29
77003;BME280;65939;50.060;14.288;2023-09-12T03:28:40;96955.38;;;20.34;83.64
77003;BME280;65939;50.060;14.288;2023-09-12T03:30:41;96953.56;;;20.35;83.54
77003;BME280;65939;50.060;14.288;2023-09-12T03:32:42;96952.28;;;20.38;84.27
77003;BME280;65939;50.060;14.288;2023-09-12T03:34:43;96953.06;;;20.38;83.74
77003;BME280;65939;50.060;14.288;2023-09-12T03:36:43;96948.38;;;20.40;84.15
77003;BME280;65939;50.060;14.288;2023-09-12T03:38:44;96957.13;;;20.41;83.94
77003;BME280;65939;50.060;14.288;2023-09-12T03:40:45;96953.22;;;20.43;83.92
77003;BME280;65939;50.060;14.288;2023-09-12T03:42:45;96954.84;;;20.44;83.45
77003;BME280;65939;50.060;14.288;2023-09-12T03:44:46;96950.94;;;20.47;83.78
77003;BME280;65939;50.060;14.288;2023-09-12T03:46:46;96952.53;;;20.48;83.87
77003;BME280;65939;50.060;14.288;2023-09-12T03:48:47;96947.84;;;20.50;83.70
77003;BME280;65939;50.060;14.288;2023-09-12T03:50:48;96951.31;;;20.50;83.85
77003;BME280;65939;50.060;14.288;2023-09-12T03:52:48;96956.63;;;20.50;83.62
77003;BME280;65939;50.060;14.288;2023-09-12T03:54:49;96951.31;;;20.50;83.53
77003;BME280;65939;50.060;14.288;2023-09-12T03:56:50;96951.31;;;20.50;83.58
77003;BME280;65939;50.060;14.288;2023-09-12T03:58:50;96953.16;;;20.50;83.86
77003;BME280;65939;50.060;14.288;2023-09-12T04:00:51;96951.72;;;20.47;83.78
77003;BME280;65939;50.060;14.288;2023-09-12T04:02:52;96953.34;;;20.48;83.56
77003;BME280;65939;50.060;14.288;2023-09-12T04:04:52;96951.72;;;20.47;83.41
77003;BME280;65939;50.060;14.288;2023-09-12T04:06:53;96951.72;;;20.47;83.56
77003;BME280;65939;50.060;14.288;2023-09-12T04:08:55;96954.97;;;20.49;83.68
77003;BME280;65939;50.060;14.288;2023-09-12T04:10:55;96944.38;;;20.49;83.30
77003;BME280;65939;50.060;14.288;2023-09-12T04:12:56;96949.66;;;20.49;83.12
77003;BME280;65939;50.060;14.288;2023-09-12T04:14:57;96950.50;;;20.50;83.26
77003;BME280;65939;50.060;14.288;2023-09-12T04:16:57;96956.63;;;20.50;83.21
77003;BME280;65939;50.060;14.288;2023-09-12T04:18:58;96950.69;;;20.48;83.19
77003;BME280;65939;50.060;14.288;2023-09-12T04:20:59;96957.03;;;20.47;82.83
77003;BME280;65939;50.060;14.288;2023-09-12T04:23:03;96954.84;;;20.44;82.92
77003;BME280;65939;50.060;14.288;2023-09-12T04:25:04;96952.63;;;20.41;83.03
77003;BME280;65939;50.060;14.288;2023-09-12T04:27:05;96955.72;;;20.38;83.09
77003;BME280;65939;50.060;14.288;2023-09-12T04:29:05;96960.09;;;20.32;82.87
77003;BME280;65939;50.060;14.288;2023-09-12T04:31:06;96957.09;;;20.29;83.25
77003;BME280;65939;50.060;14.288;2023-09-12T04:33:07;96957.19;;;20.22;83.51
77003;BME280;65939;50.060;14.288;2023-09-12T04:35:08;96955.44;;;20.16;83.32
77003;BME280;65939;50.060;14.288;2023-09-12T04:37:08;96964.06;;;20.12;83.45
77003;BME280;65939;50.060;14.288;2023-09-12T04:39:09;96957.34;;;20.09;83.33
77003;BME280;65939;50.060;14.288;2023-09-12T04:41:12;96954.59;;;20.04;83.20
77003;BME280;65939;50.060;14.288;2023-09-12T04:43:16;96961.38;;;20.00;83.45
77003;BME280;65939;50.060;14.288;2023-09-12T04:45:16;96952.25;;;19.96;83.82
77003;BME280;65939;50.060;14.288;2023-09-12T04:47:17;96950.03;;;19.93;84.63
77003;BME280;65939;50.060;14.288;2023-09-12T04:49:18;96949.25;;;19.92;84.77
77003;BME280;65939;50.060;14.288;2023-09-12T04:51:18;96952.09;;;19.91;85.14
77003;BME280;65939;50.060;14.288;2023-09-12T04:53:19;96956.59;;;19.90;84.25
77003;BME280;65939;50.060;14.288;2023-09-12T04:55:20;96961.09;;;19.90;84.66
77003;BME280;65939;50.060;14.288;2023-09-12T04:57:20;96960.47;;;19.88;85.70
77003;BME280;65939;50.060;14.288;2023-09-12T04:59:21;96957.03;;;19.87;84.74
77003;BME280;65939;50.060;14.288;2023-09-12T05:01:22;96959.69;;;19.87;85.83
77003;BME280;65939;50.060;14.288;2023-09-12T05:03:22;96955.41;;;19.86;85.20
77003;BME280;65939;50.060;14.288;2023-09-12T05:05:23;96959.69;;;19.87;85.30
77003;BME280;65939;50.060;14.288;2023-09-12T05:07:24;96961.28;;;19.88;85.10
77003;BME280;65939;50.060;14.288;2023-09-12T05:09:24;96969.25;;;19.88;85.57
77003;BME280;65939;50.060;14.288;2023-09-12T05:11:25;96968.22;;;19.89;85.79
77003;BME280;65939;50.060;14.288;2023-09-12T05:13:26;96965.34;;;19.91;85.78
77003;BME280;65939;50.060;14.288;2023-09-12T05:15:26;96957.41;;;19.91;86.20
77003;BME280;65939;50.060;14.288;2023-09-12T05:17:27;96963.50;;;19.91;85.60
77003;BME280;65939;50.060;14.288;2023-09-12T05:19:30;96968.00;;;19.91;85.82
77003;BME280;65939;50.060;14.288;2023-09-12T05:21:30;96971.25;;;19.93;85.66
77003;BME280;65939;50.060;14.288;2023-09-12T05:23:31;96970.44;;;19.92;85.30
77003;BME280;65939;50.060;14.288;2023-09-12T05:25:32;96976.53;;;19.93;85.42
77003;BME280;65939;50.060;14.288;2023-09-12T05:27:33;96970.19;;;19.94;85.33
77003;BME280;65939;50.060;14.288;2023-09-12T05:29:33;96971.81;;;19.95;86.02
77003;BME280;65939;50.060;14.288;2023-09-12T05:31:34;96974.25;;;19.96;86.04
77003;BME280;65939;50.060;14.288;2023-09-12T05:33:35;96976.66;;;19.98;85.96
77003;BME280;65939;50.060;14.288;2023-09-12T05:35:35;96970.13;;;20.00;85.55
77003;BME280;65939;50.060;14.288;2023-09-12T05:37:38;96972.53;;;20.02;85.41
77003;BME280;65939;50.060;14.288;2023-09-12T05:39:39;96975.34;;;20.07;85.92
77003;BME280;65939;50.060;14.288;2023-09-12T05:41:40;96975.91;;;20.09;85.21
77003;BME280;65939;50.060;14.288;2023-09-12T05:43:40;96982.38;;;20.13;85.27
77003;BME280;65939;50.060;14.288;2023-09-12T05:45:41;96976.44;;;20.18;85.41
77003;BME280;65939;50.060;14.288;2023-09-12T05:47:42;96983.69;;;20.22;85.12
77003;BME280;65939;50.060;14.288;2023-09-12T05:49:43;96984.06;;;20.26;85.35
77003;BME280;65939;50.060;14.288;2023-09-12T05:51:43;96978.31;;;20.29;85.63
77003;BME280;65939;50.060;14.288;2023-09-12T05:53:44;96982.94;;;20.33;85.50
77003;BME280;65939;50.060;14.288;2023-09-12T05:55:45;96983.28;;;20.37;86.04
77003;BME280;65939;50.060;14.288;2023-09-12T05:57:46;96984.00;;;20.44;86.33
77003;BME280;65939;50.060;14.288;2023-09-12T05:59:48;96980.66;;;20.49;86.40
77003;BME280;65939;50.060;14.288;2023-09-12T06:01:48;96985.91;;;20.55;86.91
77003;BME280;65939;50.060;14.288;2023-09-12T06:03:49;96990.56;;;20.60;86.46
77003;BME280;65939;50.060;14.288;2023-09-12T06:05:50;96993.09;;;20.67;86.19
77003;BME280;65939;50.060;14.288;2023-09-12T06:07:51;96992.78;;;20.75;86.14
77003;BME280;65939;50.060;14.288;2023-09-12T06:09:52;96990.47;;;20.78;86.49
77003;BME280;65939;50.060;14.288;2023-09-12T06:11:53;97000.16;;;20.85;86.17
77003;BME280;65939;50.060;14.288;2023-09-12T06:13:56;96994.75;;;20.91;85.97
77003;BME280;65939;50.060;14.288;2023-09-12T06:15:57;96990.75;;;21.00;85.75
77003;BME280;65939;50.060;14.288;2023-09-12T06:17:57;96999.84;;;21.04;85.75
77003;BME280;65939;50.060;14.288;2023-09-12T06:19:58;96999.75;;;21.11;86.15
77003;BME280;65939;50.060;14.288;2023-09-12T06:21:59;96998.03;;;21.17;86.38
77003;BME280;65939;50.060;14.288;2023-09-12T06:24:16;96998.72;;;21.24;86.46
77003;BME280;65939;50.060;14.288;2023-09-12T06:26:17;97001.50;;;21.29;86.22
77003;BME280;65939;50.060;14.288;2023-09-12T06:28:31;96995.63;;;21.39;86.00
77003;BME280;65939;50.060;14.288;2023-09-12T06:30:32;96998.75;;;21.47;86.17
77003;BME280;65939;50.060;14.288;2023-09-12T06:32:32;96990.66;;;21.54;86.07
77003;BME280;65939;50.060;14.288;2023-09-12T06:34:33;96996.06;;;21.59;86.02
77003;BME280;65939;50.060;14.288;2023-09-12T06:36:34;97002.06;;;21.66;85.49
77003;BME280;65939;50.060;14.288;2023-09-12T06:38:34;97000.34;;;21.72;85.55
77003;BME280;65939;50.060;14.288;2023-09-12T06:40:35;97001.25;;;21.78;85.70
77003;BME280;65939;50.060;14.288;2023-09-12T06:42:36;96996.28;;;21.81;85.68
77003;BME280;65939;50.060;14.288;2023-09-12T06:44:37;96997.66;;;21.84;85.99
77003;BME280;65939;50.060;14.288;2023-09-12T06:46:38;97005.97;;;21.87;85.54
77003;BME280;65939;50.060;14.288;2023-09-12T06:48:38;97003.63;;;21.91;85.33
77003;BME280;65939;50.060;14.288;2023-09-12T06:50:39;97010.47;;;21.98;85.23
77003;BME280;65939;50.060;14.288;2023-09-12T06:52:39;97007.19;;;22.08;84.53
77003;BME280;65939;50.060;14.288;2023-09-12T06:54:40;97007.66;;;22.17;83.62
77003;BME280;65939;50.060;14.288;2023-09-12T06:56:41;97005.91;;;22.22;83.30
77003;BME280;65939;50.060;14.288;2023-09-12T06:58:43;97003.34;;;22.28;82.88
77003;BME280;65939;50.060;14.288;2023-09-12T07:00:43;97011.19;;;22.34;83.07
77003;BME280;65939;50.060;14.288;2023-09-12T07:02:44;97011.03;;;22.41;83.13
77003;BME280;65939;50.060;14.288;2023-09-12T07:04:45;97009.88;;;22.49;82.79
77003;BME280;65939;50.060;14.288;2023-09-12T07:06:45;97011.31;;;22.56;82.42
77003;BME280;65939;50.060;14.288;2023-09-12T07:08:46;97016.25;;;22.64;82.33
77003;BME280;65939;50.060;14.288;2023-09-12T07:10:46;97013.19;;;22.73;82.43
77003;BME280;65939;50.060;14.288;2023-09-12T07:12:47;97011.50;;;22.83;81.23
77003;BME280;65939;50.060;14.288;2023-09-12T07:14:48;97015.88;;;22.89;80.86
77003;BME280;65939;50.060;14.288;2023-09-12T07:16:51;97010.19;;;22.98;81.13
77003;BME280;65939;50.060;14.288;2023-09-12T07:18:51;97007.63;;;23.03;81.04
77003;BME280;65939;50.060;14.288;2023-09-12T07:21:00;97004.78;;;23.09;79.91
77003;BME280;65939;50.060;14.288;2023-09-12T07:23:02;97010.75;;;23.16;79.91
77003;BME280;65939;50.060;14.288;2023-09-12T07:25:03;97005.81;;;23.25;80.55
77003;BME280;65939;50.060;14.288;2023-09-12T07:27:04;97012.84;;;23.31;79.75
77003;BME280;65939;50.060;14.288;2023-09-12T07:29:05;97001.22;;;23.37;79.87
77003;BME280;65939;50.060;14.288;2023-09-12T07:33:06;97008.84;;;23.51;79.91
77003;BME280;65939;50.060;14.288;2023-09-12T07:35:07;97013.47;;;23.55;79.99
77003;BME280;65939;50.060;14.288;2023-09-12T07:37:08;97013.28;;;23.62;78.78
77003;BME280;65939;50.060;14.288;2023-09-12T07:39:09;97007.00;;;23.68;78.79
77003;BME280;65939;50.060;14.288;2023-09-12T07:41:09;97006.03;;;23.74;78.20
77003;BME280;65939;50.060;14.288;2023-09-12T07:43:10;97007.19;;;23.83;78.11
77003;BME280;65939;50.060;14.288;2023-09-12T07:45:11;97004.34;;;23.90;78.28
77003;BME280;65939;50.060;14.288;2023-09-12T07:47:12;97011.38;;;23.96;77.86
77003;BME280;65939;50.060;14.288;2023-09-12T07:49:13;97008.50;;;24.03;77.97
77003;BME280;65939;50.060;14.288;2023-09-12T07:51:14;97009.13;;;24.10;77.43
77003;BME280;65939;50.060;14.288;2023-09-12T07:53:15;97013.47;;;24.16;77.31
77003;BME280;65939;50.060;14.288;2023-09-12T07:55:16;97010.06;;;24.21;76.79
77003;BME280;65939;50.060;14.288;2023-09-12T07:57:17;97014.41;;;24.27;76.30
77003;BME280;65939;50.060;14.288;2023-09-12T07:59:17;97012.34;;;24.34;76.43
77003;BME280;65939;50.060;14.288;2023-09-12T08:01:18;97013.53;;;24.43;74.96
77003;BME280;65939;50.060;14.288;2023-09-12T08:03:19;97014.44;;;24.54;74.69
77003;BME280;65939;50.060;14.288;2023-09-12T08:05:19;97012.38;;;24.61;74.43
77003;BME280;65939;50.060;14.288;2023-09-12T08:07:20;97017.28;;;24.69;74.32
77003;BME280;65939;50.060;14.288;2023-09-12T08:09:21;97016.25;;;24.75;73.71
77003;BME280;65939;50.060;14.288;2023-09-12T08:11:22;97013.13;;;24.83;73.42
77003;BME280;65939;50.060;14.288;2023-09-12T08:13:25;97019.56;;;24.88;73.04
77003;BME280;65939;50.060;14.288;2023-09-12T08:15:26;97022.84;;;24.95;73.26
77003;BME280;65939;50.060;14.288;2023-09-12T08:17:26;97022.88;;;25.00;72.51
77003;BME280;65939;50.060;14.288;2023-09-12T08:19:27;97020.56;;;25.08;72.32
77003;BME280;65939;50.060;14.288;2023-09-12T08:21:28;97024.13;;;25.19;73.17
77003;BME280;65939;50.060;14.288;2023-09-12T08:23:29;97027.94;;;25.28;73.29
77003;BME280;65939;50.060;14.288;2023-09-12T08:25:31;97024.25;;;25.35;72.67
77003;BME280;65939;50.060;14.288;2023-09-12T08:27:32;97024.25;;;25.40;72.14
77003;BME280;65939;50.060;14.288;2023-09-12T08:29:33;97029.66;;;25.45;72.57
77003;BME280;65939;50.060;14.288;2023-09-12T08:31:34;97017.94;;;25.51;73.02
77003;BME280;65939;50.060;14.288;2023-09-12T08:33:35;97027.88;;;25.61;74.01
77003;BME280;65939;50.060;14.288;2023-09-12T08:35:35;97028.72;;;25.66;72.99
77003;BME280;65939;50.060;14.288;2023-09-12T08:37:36;97034.09;;;25.71;71.16
77003;BME280;65939;50.060;14.288;2023-09-12T08:39:44;97032.06;;;25.84;71.29
77003;BME280;65939;50.060;14.288;2023-09-12T08:41:45;97021.13;;;25.90;70.78
77003;BME280;65939;50.060;14.288;2023-09-12T08:43:49;97026.50;;;25.95;70.61
77003;BME280;65939;50.060;14.288;2023-09-12T08:45:51;97023.84;;;26.00;72.27
77003;BME280;65939;50.060;14.288;2023-09-12T08:47:55;97023.06;;;26.05;71.84
77003;BME280;65939;50.060;14.288;2023-09-12T08:49:57;97023.06;;;26.05;70.39
77003;BME280;65939;50.060;14.288;2023-09-12T08:51:58;97022.56;;;26.08;69.93
77003;BME280;65939;50.060;14.288;2023-09-12T08:53:59;97023.13;;;26.15;71.12
77003;BME280;65939;50.060;14.288;2023-09-12T08:56:00;97025.28;;;26.23;70.63
77003;BME280;65939;50.060;14.288;2023-09-12T08:58:05;97024.25;;;26.35;69.85
77003;BME280;65939;50.060;14.288;2023-09-12T09:00:07;97031.81;;;26.48;70.84
77003;BME280;65939;50.060;14.288;2023-09-12T09:02:14;97032.38;;;26.55;69.04
77003;BME280;65939;50.060;14.288;2023-09-12T09:04:15;97021.13;;;26.63;68.03
77003;BME280;65939;50.060;14.288;2023-09-12T09:06:17;97029.19;;;26.68;68.43
77003;BME280;65939;50.060;14.288;2023-09-12T09:08:20;97025.97;;;26.77;68.61
77003;BME280;65939;50.060;14.288;2023-09-12T09:10:22;97021.97;;;26.84;67.83
77003;BME280;65939;50.060;14.288;2023-09-12T09:12:23;97023.84;;;26.89;69.20
77003;BME280;65939;50.060;14.288;2023-09-12T09:14:24;97025.72;;;26.93;67.96
77003;BME280;65939;50.060;14.288;2023-09-12T09:16:25;97035.09;;;26.96;67.79
77003;BME280;65939;50.060;14.288;2023-09-12T09:18:25;97020.63;;;27.02;67.20
77003;BME280;65939;50.060;14.288;2023-09-12T09:22:27;97030.84;;;27.15;67.53
77003;BME280;65939;50.060;14.288;2023-09-12T09:24:27;97029.78;;;27.21;66.22
77003;BME280;65939;50.060;14.288;2023-09-12T09:26:43;97020.41;;;27.29;65.93
77003;BME280;65939;50.060;14.288;2023-09-12T09:28:44;97025.22;;;27.37;66.22
77003;BME280;65939;50.060;14.288;2023-09-12T09:30:47;97022.50;;;27.42;66.47
77003;BME280;65939;50.060;14.288;2023-09-12T09:32:54;97021.97;;;27.51;66.54
77003;BME280;65939;50.060;14.288;2023-09-12T09:34:54;97018.72;;;27.59;66.44
77003;BME280;65939;50.060;14.288;2023-09-12T09:36:56;97025.41;;;27.66;66.20
77003;BME280;65939;50.060;14.288;2023-09-12T09:38:57;97023.84;;;27.76;65.30
77003;BME280;65939;50.060;14.288;2023-09-12T09:41:00;97010.38;;;27.81;66.16
77003;BME280;65939;50.060;14.288;2023-09-12T09:43:03;97010.38;;;27.86;65.75
77003;BME280;65939;50.060;14.288;2023-09-12T09:45:04;97005.53;;;27.93;65.61
77003;BME280;65939;50.060;14.288;2023-09-12T09:47:05;97002.53;;;28.00;66.01
77003;BME280;65939;50.060;14.288;2023-09-12T09:49:10;97003.88;;;28.07;65.67
77003;BME280;65939;50.060;14.288;2023-09-12T09:51:13;97005.72;;;28.12;65.94
77003;BME280;65939;50.060;14.288;2023-09-12T09:53:14;97006.22;;;28.14;63.92
77003;BME280;65939;50.060;14.288;2023-09-12T09:55:14;97002.44;;;28.20;63.40
77003;BME280;65939;50.060;14.288;2023-09-12T09:57:15;97004.84;;;28.27;63.41
77003;BME280;65939;50.060;14.288;2023-09-12T09:59:17;97004.53;;;28.33;62.86
77003;BME280;65939;50.060;14.288;2023-09-12T10:01:21;97002.66;;;28.39;62.80
77003;BME280;65939;50.060;14.288;2023-09-12T10:03:24;97001.00;;;28.48;63.67
77003;BME280;65939;50.060;14.288;2023-09-12T10:05:28;96992.06;;;28.58;63.73
77003;BME280;65939;50.060;14.288;2023-09-12T10:07:33;96993.34;;;28.66;63.49
77003;BME280;65939;50.060;14.288;2023-09-12T10:09:35;96996.00;;;28.71;62.33
77003;BME280;65939;50.060;14.288;2023-09-12T10:11:38;96991.69;;;28.75;62.26
77003;BME280;65939;50.060;14.288;2023-09-12T10:13:46;96988.66;;;28.81;62.87
77003;BME280;65939;50.060;14.288;2023-09-12T10:15:51;96983.78;;;28.88;62.36
77003;BME280;65939;50.060;14.288;2023-09-12T10:17:59;96991.50;;;28.95;63.08
77003;BME280;65939;50.060;14.288;2023-09-12T10:20:03;96982.31;;;29.06;62.36
77003;BME280;65939;50.060;14.288;2023-09-12T10:22:20;96986.00;;;29.16;61.57
77003;BME280;65939;50.060;14.288;2023-09-12T10:24:22;96979.84;;;29.15;61.03
77003;BME280;65939;50.060;14.288;2023-09-12T10:26:24;96972.03;;;29.14;61.15
77003;BME280;65939;50.060;14.288;2023-09-12T10:28:26;96975.81;;;29.13;60.41
77003;BME280;65939;50.060;14.288;2023-09-12T10:30:29;96976.84;;;29.17;62.00
77003;BME280;65939;50.060;14.288;2023-09-12T10:32:32;96977.31;;;29.24;60.55
77003;BME280;65939;50.060;14.288;2023-09-12T10:34:35;96975.63;;;29.33;60.26
77003;BME280;65939;50.060;14.288;2023-09-12T10:36:39;96968.56;;;29.42;60.19
77003;BME280;65939;50.060;14.288;2023-09-12T10:38:44;96965.47;;;29.54;60.34
77003;BME280;65939;50.060;14.288;2023-09-12T10:40:47;96966.97;;;29.65;59.03
77003;BME280;65939;50.060;14.288;2023-09-12T10:42:49;96958.25;;;29.73;58.45
77003;BME280;65939;50.060;14.288;2023-09-12T10:44:54;96962.72;;;29.83;57.62
77003;BME280;65939;50.060;14.288;2023-09-12T10:46:57;96962.03;;;29.96;57.53